Gunilla — SERW — position and weather

sailwx.info

Track history (hours):
 
Tides and Currents Weather Stations Pressure Air Temp Water Temp Dewpoint Dewpoint Depression Visibility Wind Speed Wind Dir Waves Ship Positions

Gunilla (Sweden)

Ship's website: http://www.gunilla.nu/engelsk/frameset_english.htm

Last reported at 2017-Nov-14 11:30 UTC. Time now 2017-Nov-22 20:13 UTC.
Position N 39°23' E 002°28'.
Warning: this ship's position is 8 days out of date.

Length 49.4 m; beam 8.4 m; draft 2.7 m.

Type: Sailing vessel. MMSI: 265318000.

Date/timePositionNaut miles runAvg speedWind from/ knotsBaromVisibWave heightAir tempDewpointWater temp
2017-Nov-14 11:30N 39°23' E 002°28'2 4.1
2017-Nov-14 11:00N 39°24' E 002°30'2 4.5
2017-Nov-14 10:30N 39°26' E 002°33'2 4.0
2017-Nov-14 10:00N 39°27' E 002°34'2 4.4
2017-Nov-14 09:30N 39°29' E 002°36'2 4.2
2017-Nov-14 09:00N 39°31' E 002°37'2 4.3
2017-Nov-14 08:30N 39°33' E 002°39'1 1.3
2017-Nov-14 07:58N 39°33' E 002°38'0 0.0
2017-Nov-14 07:25N 39°33' E 002°38'0 0.0
2017-Nov-14 06:58N 39°33' E 002°38'0 0.0
2017-Nov-14 06:25N 39°33' E 002°38'0 0.0
2017-Nov-14 05:58N 39°33' E 002°38'0 0.0
2017-Nov-14 05:28N 39°33' E 002°38'0 0.0
2017-Nov-14 04:58N 39°33' E 002°38'0 0.0
2017-Nov-14 04:28N 39°33' E 002°38'0 0.0
2017-Nov-14 03:58N 39°33' E 002°38'0 0.0
2017-Nov-14 03:28N 39°33' E 002°38'0 0.0
2017-Nov-14 02:58N 39°33' E 002°38'0 0.0
2017-Nov-14 02:28N 39°33' E 002°38'0 0.0
2017-Nov-14 01:55N 39°33' E 002°38'0 0.0
2017-Nov-14 01:28N 39°33' E 002°38'0 0.0
2017-Nov-14 00:58N 39°33' E 002°38'0 0.0
2017-Nov-14 00:28N 39°33' E 002°38'0 0.0
2017-Nov-13 23:58N 39°33' E 002°38'0 0.0
2017-Nov-13 23:28N 39°33' E 002°38'0 0.0
2017-Nov-13 22:58N 39°33' E 002°38'0 0.0
2017-Nov-13 22:28N 39°33' E 002°38'0 0.0
2017-Nov-13 21:58N 39°33' E 002°38'5 0.3
2017-Nov-13 02:00N 39°28' E 002°35'0 0.4
2017-Nov-13 01:30N 39°28' E 002°35'0 0.6
2017-Nov-13 01:01N 39°28' E 002°35'1 1.0
2017-Nov-13 00:30N 39°28' E 002°34'1 1.2
2017-Nov-13 00:00N 39°28' E 002°34'0 0.5
2017-Nov-12 23:24N 39°27' E 002°34'1 2.5
2017-Nov-12 23:00N 39°27' E 002°35'1 2.1
2017-Nov-12 22:30N 39°28' E 002°36'1 2.0
2017-Nov-12 22:00N 39°28' E 002°37'1 2.0
2017-Nov-12 21:30N 39°28' E 002°39'0 0.3
2017-Nov-12 21:00N 39°28' E 002°39'0 0.8
2017-Nov-12 20:30N 39°28' E 002°38'0 0.8
2017-Nov-12 20:00N 39°28' E 002°38'2 3.8
2017-Nov-12 19:30N 39°30' E 002°39'1 2.7
2017-Nov-12 19:00N 39°31' E 002°39'1 2.7
2017-Nov-12 18:30N 39°33' E 002°39'1 1.8
2017-Nov-12 18:00N 39°33' E 002°38'0 0.0
2017-Nov-12 17:30N 39°33' E 002°38'0 0.0
2017-Nov-12 17:00N 39°33' E 002°38'0 0.0
2017-Nov-12 16:30N 39°33' E 002°38'0 0.0
2017-Nov-12 16:00N 39°33' E 002°38'0 0.0
2017-Nov-12 15:30N 39°33' E 002°38'0 0.0
2017-Nov-12 15:00N 39°33' E 002°38'0 0.0
2017-Nov-12 14:30N 39°33' E 002°38'0 0.0
2017-Nov-12 14:00N 39°33' E 002°38'0 0.0
2017-Nov-12 13:30N 39°33' E 002°38'0 0.0
2017-Nov-12 13:00N 39°33' E 002°38'0 0.0
2017-Nov-12 12:30N 39°33' E 002°38'0 0.0
2017-Nov-12 12:00N 39°33' E 002°38'0 0.0
2017-Nov-12 11:30N 39°33' E 002°38'0 0.0
2017-Nov-12 11:00N 39°33' E 002°38'0 0.0
2017-Nov-12 10:30N 39°33' E 002°38'0 0.0
2017-Nov-12 10:00N 39°33' E 002°38'0 0.0
2017-Nov-12 09:30N 39°33' E 002°38'0 0.0
2017-Nov-12 09:00N 39°33' E 002°38'0 0.0
2017-Nov-12 08:30N 39°33' E 002°38'0 0.0
2017-Nov-12 08:00N 39°33' E 002°38'0 0.0
2017-Nov-12 07:30N 39°33' E 002°38'0 0.0
2017-Nov-12 07:00N 39°33' E 002°38'0 0.0
2017-Nov-12 06:30N 39°33' E 002°38'0 0.0
2017-Nov-12 06:00N 39°33' E 002°38'0 0.0
2017-Nov-12 05:30N 39°33' E 002°38'0 0.0
2017-Nov-12 05:00N 39°33' E 002°38'0 0.0
2017-Nov-12 04:30N 39°33' E 002°38'0 0.0
2017-Nov-12 04:00N 39°33' E 002°38'0 0.0
2017-Nov-12 03:30N 39°33' E 002°38'0 0.0
2017-Nov-12 03:00N 39°33' E 002°38'0 0.0
2017-Nov-12 02:30N 39°33' E 002°38'0 0.0
2017-Nov-12 02:00N 39°33' E 002°38'0 0.0
2017-Nov-12 01:30N 39°33' E 002°38'0 0.0
2017-Nov-12 01:00N 39°33' E 002°38'0 0.0
2017-Nov-12 00:30N 39°33' E 002°38'0 0.0
2017-Nov-12 00:00N 39°33' E 002°38'0 0.0
2017-Nov-11 23:30N 39°33' E 002°38'0 0.0
2017-Nov-11 23:00N 39°33' E 002°38'0 0.0
2017-Nov-11 22:30N 39°33' E 002°38'0 0.0
2017-Nov-11 22:00N 39°33' E 002°38'0 0.0
2017-Nov-11 21:30N 39°33' E 002°38'0 0.0
2017-Nov-11 21:00N 39°33' E 002°38'0 0.0
2017-Nov-11 20:30N 39°33' E 002°38'0 0.0
2017-Nov-11 20:00N 39°33' E 002°38'0 0.0
2017-Nov-11 19:30N 39°33' E 002°38'0 0.0
2017-Nov-11 19:00N 39°33' E 002°38'0 0.0
2017-Nov-11 18:30N 39°33' E 002°38'0 0.0
2017-Nov-11 18:00N 39°33' E 002°38'0 0.0
2017-Nov-11 17:30N 39°33' E 002°38'0 0.0
2017-Nov-11 17:00N 39°33' E 002°38'0 0.0
2017-Nov-11 16:30N 39°33' E 002°38'0 0.0
2017-Nov-11 16:00N 39°33' E 002°38'0 0.0
2017-Nov-11 15:30N 39°33' E 002°38'0 0.0
2017-Nov-11 15:00N 39°33' E 002°38'0 0.0
2017-Nov-11 14:30N 39°33' E 002°38'0 0.0
2017-Nov-11 14:00N 39°33' E 002°38'0 0.0
2017-Nov-11 13:30N 39°33' E 002°38'0 0.0
2017-Nov-11 13:00N 39°33' E 002°38'0 0.0
2017-Nov-11 12:30N 39°33' E 002°38'0 0.0
2017-Nov-11 12:00N 39°33' E 002°38'0 0.0
2017-Nov-11 11:30N 39°33' E 002°38'0 0.0
2017-Nov-11 11:00N 39°33' E 002°38'0 0.0
2017-Nov-11 10:30N 39°33' E 002°38'0 0.0
2017-Nov-11 10:00N 39°33' E 002°38'0 0.0
2017-Nov-11 09:30N 39°33' E 002°38'0 0.0
2017-Nov-11 09:00N 39°33' E 002°38'0 0.0
2017-Nov-11 08:30N 39°33' E 002°38'0 0.0
2017-Nov-11 08:00N 39°33' E 002°38'0 0.0
2017-Nov-11 07:30N 39°33' E 002°38'0 0.0
2017-Nov-11 07:00N 39°33' E 002°38'0 0.0
2017-Nov-11 06:30N 39°33' E 002°38'0 0.0
2017-Nov-11 06:00N 39°33' E 002°38'0 0.0
2017-Nov-11 05:30N 39°33' E 002°38'0 0.0
2017-Nov-11 05:00N 39°33' E 002°38'0 0.0
2017-Nov-11 04:30N 39°33' E 002°38'0 0.0
2017-Nov-11 04:00N 39°33' E 002°38'0 0.0
2017-Nov-11 03:30N 39°33' E 002°38'0 0.0
2017-Nov-11 03:00N 39°33' E 002°38'0 0.0
2017-Nov-11 02:30N 39°33' E 002°38'0 0.0
2017-Nov-11 02:00N 39°33' E 002°38'0 0.0
2017-Nov-11 01:30N 39°33' E 002°38'0 0.0
2017-Nov-11 01:00N 39°33' E 002°38'0 0.0
2017-Nov-11 00:30N 39°33' E 002°38'0 0.0
2017-Nov-11 00:00N 39°33' E 002°38'0 0.0
2017-Nov-10 23:30N 39°33' E 002°38'0 0.0
2017-Nov-10 23:00N 39°33' E 002°38'0 0.0
2017-Nov-10 22:30N 39°33' E 002°38'0 0.0
2017-Nov-10 22:00N 39°33' E 002°38'0 0.0
2017-Nov-10 21:30N 39°33' E 002°38'0 0.0
2017-Nov-10 21:00N 39°33' E 002°38'0 0.0
2017-Nov-10 20:30N 39°33' E 002°38'0 0.0
2017-Nov-10 20:00N 39°33' E 002°38'0 0.0
2017-Nov-10 19:30N 39°33' E 002°38'0 0.0
2017-Nov-10 19:00N 39°33' E 002°38'0 0.0
2017-Nov-10 18:30N 39°33' E 002°38'0 0.0
2017-Nov-10 18:00N 39°33' E 002°38'0 0.0
2017-Nov-10 17:30N 39°33' E 002°38'0 0.0
2017-Nov-10 17:00N 39°33' E 002°38'0 0.0
2017-Nov-10 16:30N 39°33' E 002°38'0 0.0
2017-Nov-10 16:00N 39°33' E 002°38'0 0.0
2017-Nov-10 15:30N 39°33' E 002°38'0 0.0
2017-Nov-10 15:00N 39°33' E 002°38'0 0.0
2017-Nov-10 14:30N 39°33' E 002°38'0 0.0
2017-Nov-10 14:00N 39°33' E 002°38'0 0.0
2017-Nov-10 13:30N 39°33' E 002°38'0 0.0
2017-Nov-10 13:00N 39°33' E 002°38'0 0.0
2017-Nov-10 12:30N 39°33' E 002°38'0 0.0
2017-Nov-10 12:00N 39°33' E 002°38'0 0.0
2017-Nov-10 11:30N 39°33' E 002°38'0 0.0
2017-Nov-10 11:00N 39°33' E 002°38'0 0.0
2017-Nov-10 10:30N 39°33' E 002°38'0 0.0
2017-Nov-10 10:00N 39°33' E 002°38'0 0.0
2017-Nov-10 09:30N 39°33' E 002°38'0 0.0
2017-Nov-10 09:00N 39°33' E 002°38'0 0.0
2017-Nov-10 08:30N 39°33' E 002°38'1 1.7
2017-Nov-10 08:00N 39°32' E 002°39'3 5.2
2017-Nov-10 07:30N 39°30' E 002°38'2 4.5
2017-Nov-10 07:00N 39°28' E 002°36'2 3.8
2017-Nov-10 06:30N 39°26' E 002°35'2 4.0
2017-Nov-10 06:00N 39°25' E 002°33'2 4.4
2017-Nov-10 05:30N 39°24' E 002°30'2 4.6
2017-Nov-10 05:00N 39°24' E 002°27'3 5.0
2017-Nov-10 04:29N 39°24' E 002°24'  
Track history (hours):
 
Tides and Currents Weather Stations Pressure Air Temp Water Temp Dewpoint Dewpoint Depression Visibility Wind Speed Wind Dir Waves Ship Positions

Gunilla (Sweden)

Ship's website: http://www.gunilla.nu/engelsk/frameset_english.htm

Last reported at 2017-Nov-14 11:30 UTC. Time now 2017-Nov-22 20:13 UTC.
Position N 39°23' E 002°28'.
Warning: this ship's position is 8 days out of date.

Length 49.4 m; beam 8.4 m; draft 2.7 m.

Type: Sailing vessel. MMSI: 265318000.

Date/timePositionNaut miles runAvg speedWind from/ knotsBaromVisibWave heightAir tempDewpointWater temp
2017-Nov-14 11:30N 39°23' E 002°28'2 4.1
2017-Nov-14 11:00N 39°24' E 002°30'2 4.5
2017-Nov-14 10:30N 39°26' E 002°33'2 4.0
2017-Nov-14 10:00N 39°27' E 002°34'2 4.4
2017-Nov-14 09:30N 39°29' E 002°36'2 4.2
2017-Nov-14 09:00N 39°31' E 002°37'2 4.3
2017-Nov-14 08:30N 39°33' E 002°39'1 1.3
2017-Nov-14 07:58N 39°33' E 002°38'0 0.0
2017-Nov-14 07:25N 39°33' E 002°38'0 0.0
2017-Nov-14 06:58N 39°33' E 002°38'0 0.0
2017-Nov-14 06:25N 39°33' E 002°38'0 0.0
2017-Nov-14 05:58N 39°33' E 002°38'0 0.0
2017-Nov-14 05:28N 39°33' E 002°38'0 0.0
2017-Nov-14 04:58N 39°33' E 002°38'0 0.0
2017-Nov-14 04:28N 39°33' E 002°38'0 0.0
2017-Nov-14 03:58N 39°33' E 002°38'0 0.0
2017-Nov-14 03:28N 39°33' E 002°38'0 0.0
2017-Nov-14 02:58N 39°33' E 002°38'0 0.0
2017-Nov-14 02:28N 39°33' E 002°38'0 0.0
2017-Nov-14 01:55N 39°33' E 002°38'0 0.0
2017-Nov-14 01:28N 39°33' E 002°38'0 0.0
2017-Nov-14 00:58N 39°33' E 002°38'0 0.0
2017-Nov-14 00:28N 39°33' E 002°38'0 0.0
2017-Nov-13 23:58N 39°33' E 002°38'0 0.0
2017-Nov-13 23:28N 39°33' E 002°38'0 0.0
2017-Nov-13 22:58N 39°33' E 002°38'0 0.0
2017-Nov-13 22:28N 39°33' E 002°38'0 0.0
2017-Nov-13 21:58N 39°33' E 002°38'5 0.3
2017-Nov-13 02:00N 39°28' E 002°35'0 0.4
2017-Nov-13 01:30N 39°28' E 002°35'0 0.6
2017-Nov-13 01:01N 39°28' E 002°35'1 1.0
2017-Nov-13 00:30N 39°28' E 002°34'1 1.2
2017-Nov-13 00:00N 39°28' E 002°34'0 0.5
2017-Nov-12 23:24N 39°27' E 002°34'1 2.5
2017-Nov-12 23:00N 39°27' E 002°35'1 2.1
2017-Nov-12 22:30N 39°28' E 002°36'1 2.0
2017-Nov-12 22:00N 39°28' E 002°37'1 2.0
2017-Nov-12 21:30N 39°28' E 002°39'0 0.3
2017-Nov-12 21:00N 39°28' E 002°39'0 0.8
2017-Nov-12 20:30N 39°28' E 002°38'0 0.8
2017-Nov-12 20:00N 39°28' E 002°38'2 3.8
2017-Nov-12 19:30N 39°30' E 002°39'1 2.7
2017-Nov-12 19:00N 39°31' E 002°39'1 2.7
2017-Nov-12 18:30N 39°33' E 002°39'1 1.8
2017-Nov-12 18:00N 39°33' E 002°38'0 0.0
2017-Nov-12 17:30N 39°33' E 002°38'0 0.0
2017-Nov-12 17:00N 39°33' E 002°38'0 0.0
2017-Nov-12 16:30N 39°33' E 002°38'0 0.0
2017-Nov-12 16:00N 39°33' E 002°38'0 0.0
2017-Nov-12 15:30N 39°33' E 002°38'0 0.0
2017-Nov-12 15:00N 39°33' E 002°38'0 0.0
2017-Nov-12 14:30N 39°33' E 002°38'0 0.0
2017-Nov-12 14:00N 39°33' E 002°38'0 0.0
2017-Nov-12 13:30N 39°33' E 002°38'0 0.0
2017-Nov-12 13:00N 39°33' E 002°38'0 0.0
2017-Nov-12 12:30N 39°33' E 002°38'0 0.0
2017-Nov-12 12:00N 39°33' E 002°38'0 0.0
2017-Nov-12 11:30N 39°33' E 002°38'0 0.0
2017-Nov-12 11:00N 39°33' E 002°38'0 0.0
2017-Nov-12 10:30N 39°33' E 002°38'0 0.0
2017-Nov-12 10:00N 39°33' E 002°38'0 0.0
2017-Nov-12 09:30N 39°33' E 002°38'0 0.0
2017-Nov-12 09:00N 39°33' E 002°38'0 0.0
2017-Nov-12 08:30N 39°33' E 002°38'0 0.0
2017-Nov-12 08:00N 39°33' E 002°38'0 0.0
2017-Nov-12 07:30N 39°33' E 002°38'0 0.0
2017-Nov-12 07:00N 39°33' E 002°38'0 0.0
2017-Nov-12 06:30N 39°33' E 002°38'0 0.0
2017-Nov-12 06:00N 39°33' E 002°38'0 0.0
2017-Nov-12 05:30N 39°33' E 002°38'0 0.0
2017-Nov-12 05:00N 39°33' E 002°38'0 0.0
2017-Nov-12 04:30N 39°33' E 002°38'0 0.0
2017-Nov-12 04:00N 39°33' E 002°38'0 0.0
2017-Nov-12 03:30N 39°33' E 002°38'0 0.0
2017-Nov-12 03:00N 39°33' E 002°38'0 0.0
2017-Nov-12 02:30N 39°33' E 002°38'0 0.0
2017-Nov-12 02:00N 39°33' E 002°38'0 0.0
2017-Nov-12 01:30N 39°33' E 002°38'0 0.0
2017-Nov-12 01:00N 39°33' E 002°38'0 0.0
2017-Nov-12 00:30N 39°33' E 002°38'0 0.0
2017-Nov-12 00:00N 39°33' E 002°38'0 0.0
2017-Nov-11 23:30N 39°33' E 002°38'0 0.0
2017-Nov-11 23:00N 39°33' E 002°38'0 0.0
2017-Nov-11 22:30N 39°33' E 002°38'0 0.0
2017-Nov-11 22:00N 39°33' E 002°38'0 0.0
2017-Nov-11 21:30N 39°33' E 002°38'0 0.0
2017-Nov-11 21:00N 39°33' E 002°38'0 0.0
2017-Nov-11 20:30N 39°33' E 002°38'0 0.0
2017-Nov-11 20:00N 39°33' E 002°38'0 0.0
2017-Nov-11 19:30N 39°33' E 002°38'0 0.0
2017-Nov-11 19:00N 39°33' E 002°38'0 0.0
2017-Nov-11 18:30N 39°33' E 002°38'0 0.0
2017-Nov-11 18:00N 39°33' E 002°38'0 0.0
2017-Nov-11 17:30N 39°33' E 002°38'0 0.0
2017-Nov-11 17:00N 39°33' E 002°38'0 0.0
2017-Nov-11 16:30N 39°33' E 002°38'0 0.0
2017-Nov-11 16:00N 39°33' E 002°38'0 0.0
2017-Nov-11 15:30N 39°33' E 002°38'0 0.0
2017-Nov-11 15:00N 39°33' E 002°38'0 0.0
2017-Nov-11 14:30N 39°33' E 002°38'0 0.0
2017-Nov-11 14:00N 39°33' E 002°38'0 0.0
2017-Nov-11 13:30N 39°33' E 002°38'0 0.0
2017-Nov-11 13:00N 39°33' E 002°38'0 0.0
2017-Nov-11 12:30N 39°33' E 002°38'0 0.0
2017-Nov-11 12:00N 39°33' E 002°38'0 0.0
2017-Nov-11 11:30N 39°33' E 002°38'0 0.0
2017-Nov-11 11:00N 39°33' E 002°38'0 0.0
2017-Nov-11 10:30N 39°33' E 002°38'0 0.0
2017-Nov-11 10:00N 39°33' E 002°38'0 0.0
2017-Nov-11 09:30N 39°33' E 002°38'0 0.0
2017-Nov-11 09:00N 39°33' E 002°38'0 0.0
2017-Nov-11 08:30N 39°33' E 002°38'0 0.0
2017-Nov-11 08:00N 39°33' E 002°38'0 0.0
2017-Nov-11 07:30N 39°33' E 002°38'0 0.0
2017-Nov-11 07:00N 39°33' E 002°38'0 0.0
2017-Nov-11 06:30N 39°33' E 002°38'0 0.0
2017-Nov-11 06:00N 39°33' E 002°38'0 0.0
2017-Nov-11 05:30N 39°33' E 002°38'0 0.0
2017-Nov-11 05:00N 39°33' E 002°38'0 0.0
2017-Nov-11 04:30N 39°33' E 002°38'0 0.0
2017-Nov-11 04:00N 39°33' E 002°38'0 0.0
2017-Nov-11 03:30N 39°33' E 002°38'0 0.0
2017-Nov-11 03:00N 39°33' E 002°38'0 0.0
2017-Nov-11 02:30N 39°33' E 002°38'0 0.0
2017-Nov-11 02:00N 39°33' E 002°38'0 0.0
2017-Nov-11 01:30N 39°33' E 002°38'0 0.0
2017-Nov-11 01:00N 39°33' E 002°38'0 0.0
2017-Nov-11 00:30N 39°33' E 002°38'0 0.0
2017-Nov-11 00:00N 39°33' E 002°38'0 0.0
2017-Nov-10 23:30N 39°33' E 002°38'0 0.0
2017-Nov-10 23:00N 39°33' E 002°38'0 0.0
2017-Nov-10 22:30N 39°33' E 002°38'0 0.0
2017-Nov-10 22:00N 39°33' E 002°38'0 0.0
2017-Nov-10 21:30N 39°33' E 002°38'0 0.0
2017-Nov-10 21:00N 39°33' E 002°38'0 0.0
2017-Nov-10 20:30N 39°33' E 002°38'0 0.0
2017-Nov-10 20:00N 39°33' E 002°38'0 0.0
2017-Nov-10 19:30N 39°33' E 002°38'0 0.0
2017-Nov-10 19:00N 39°33' E 002°38'0 0.0
2017-Nov-10 18:30N 39°33' E 002°38'0 0.0
2017-Nov-10 18:00N 39°33' E 002°38'0 0.0
2017-Nov-10 17:30N 39°33' E 002°38'0 0.0
2017-Nov-10 17:00N 39°33' E 002°38'0 0.0
2017-Nov-10 16:30N 39°33' E 002°38'0 0.0
2017-Nov-10 16:00N 39°33' E 002°38'0 0.0
2017-Nov-10 15:30N 39°33' E 002°38'0 0.0
2017-Nov-10 15:00N 39°33' E 002°38'0 0.0
2017-Nov-10 14:30N 39°33' E 002°38'0 0.0
2017-Nov-10 14:00N 39°33' E 002°38'0 0.0
2017-Nov-10 13:30N 39°33' E 002°38'0 0.0
2017-Nov-10 13:00N 39°33' E 002°38'0 0.0
2017-Nov-10 12:30N 39°33' E 002°38'0 0.0
2017-Nov-10 12:00N 39°33' E 002°38'0 0.0
2017-Nov-10 11:30N 39°33' E 002°38'0 0.0
2017-Nov-10 11:00N 39°33' E 002°38'0 0.0
2017-Nov-10 10:30N 39°33' E 002°38'0 0.0
2017-Nov-10 10:00N 39°33' E 002°38'0 0.0
2017-Nov-10 09:30N 39°33' E 002°38'0 0.0
2017-Nov-10 09:00N 39°33' E 002°38'0 0.0
2017-Nov-10 08:30N 39°33' E 002°38'1 1.7
2017-Nov-10 08:00N 39°32' E 002°39'3 5.2
2017-Nov-10 07:30N 39°30' E 002°38'2 4.5
2017-Nov-10 07:00N 39°28' E 002°36'2 3.8
2017-Nov-10 06:30N 39°26' E 002°35'2 4.0
2017-Nov-10 06:00N 39°25' E 002°33'2 4.4
2017-Nov-10 05:30N 39°24' E 002°30'2 4.6
2017-Nov-10 05:00N 39°24' E 002°27'3 5.0
2017-Nov-10 04:29N 39°24' E 002°24'  

Dump ship's entire track history